Holden, UT

1:49 AM MST on December 05, 2016 (GMT -0700)
Oak City | | Change Station

Elev 5135 ft 39.37 °N, 112.33 °W | Updated 4 minutes ago

Mostly Cloudy
Mostly Cloudy
46.4 °F
Feels Like 40 °F
N
15.0
Wind Variable Wind from South
Gusts 17.0 mph

Today
High -- | Low -- °F
--% Chance of Precip.
Yesterday
High -- | Low -- °F
Precip. -- in
Pressure 29.85 in
Visibility 10.0 miles
Clouds Mostly Cloudy 11000 ft
Windchill 40 °F
Dew Point 15 °F
Humidity 28%
Rainfall 0.00 in
Snow Depth Not available.
7:33 AM 5:06 PM
Waxing Crescent, 30% visible
METAR KMLF 050752Z AUTO 20015KT 10SM BKN110 03/M11 A2988 RMK AO2 SLP107 T00331106
Pressure 29.85 in
Visibility 10.0 miles
Clouds Mostly Cloudy 11000 ft
Windchill 40 °F
Dew Point 15 °F
Humidity 28%
Rainfall 0.00 in
Snow Depth Not available.
7:33 AM 5:06 PM
Waxing Crescent, 30% visible
METAR KMLF 050752Z AUTO 20015KT 10SM BKN110 03/M11 A2988 RMK AO2 SLP107 T00331106

10-Day Weather Forecast

Almanac

Astronomy

Dec. 05, 2016 Rise Set
Actual Time
Civil Twilight
Nautical Twilight
Astronomical Twilight
Moon
Length of Visible Light
Length of Day
Tomorrow will be .
, % of the Moon is Illuminated

Today's Extremes

State Highs State Lows

Community

WunderPhotos

Upload Photos

1,955,771 photos uploaded!

WunderBlog® & News

Nearby

Air Quality

  Air Quality AQ Index Pollutant
Not available.

Snow Depth

Station Depth Elevation

Earthquake Activity

City Distance Mag. Time & Date
Minimum magnitude displayed is 2.5.

Coastal Water Temperatures

Place Temperature

Stations

Nearby Weather Stations

Station Location Temp. Windchill Dew Point Humidity Wind Precip. Elev Updated Type
                   

Watches & Warnings

There are currently no watches in effect.